logo

United by the hobby
of model aircraft flying

Promoting safe
radio model flying

Sharing the experience
of RC flying

Dedicated to the sport of model aviation

Meeting
Venue

Third Monday Each Month
Crown Point Civic Center
101 S East Street
Crown Point, IN 46307

Read More

email:
[javascript protected email address]

View our events calendar

2020

Weather Conditions

Elev 730 ft    41.19°N  87.16°W

39.0 °F
°
m/h
Wind Variable Wind from NNE

Current Conditions

Pressure 30.21 in
Visibility 10 miles
Clouds Overcast
Dew Point 36.0 °F
Humidity 88 %
Rainfall 0.01 in
 
METAR KVPZ 271956Z AUTO 00000KT 10SM BKN009 OVC070 04/02 A3021 RMK AO2 RAE16 CIG 007V012 SLP236 P0000 T00390022

Forecast

INFORMATION PROVIDED BY THE INDIANA STATE FORECAST - NATIONAL WEATHER SERVICE
Sunrise & Sunset
October 27, 2020
4:3 AM

5:51 PM
High 58 | Low 42°F
October 28, 2020
4:3 AM

5:51 PM
High | Low °F
 

our gallery

View All